Terminal Aerodrome Forecast
Issued by NWS

Home | Current Version | Previous Version | Text Only | Print | Product List | Glossary Off
Versions: 1 2 3 4 5 6 7 8 9 10 11 12 13 14 15 16 17 18 19

000
FTUS43 KABR 261720
TAFMBG
TAF
KMBG 261720Z 2618/2718 30014G22KT P6SM SCT060
     FM270100 30009KT P6SM SCT200
     FM271200 27009KT P6SM BKN120=

USA.gov is the U.S. government's official web portal to all federal, state and local government web resources and services.